sensor_id;sensor_type;location;lat;lon;timestamp;pressure;altitude;pressure_sealevel;temperature;humidity
64933;BME280;51446;53.850;10.662;2023-04-24T00:02:21;99924.19;;;13.08;100.00
64933;BME280;51446;53.850;10.662;2023-04-24T00:04:47;99930.41;;;12.97;100.00
64933;BME280;51446;53.850;10.662;2023-04-24T00:07:14;99927.69;;;13.11;100.00
64933;BME280;51446;53.850;10.662;2023-04-24T00:09:42;99924.28;;;12.98;100.00
64933;BME280;51446;53.850;10.662;2023-04-24T00:12:09;99934.72;;;13.08;100.00
64933;BME280;51446;53.850;10.662;2023-04-24T00:14:35;99943.56;;;12.99;100.00
64933;BME280;51446;53.850;10.662;2023-04-24T00:17:00;99917.25;;;12.97;100.00
64933;BME280;51446;53.850;10.662;2023-04-24T00:19:27;99940.94;;;12.99;100.00
64933;BME280;51446;53.850;10.662;2023-04-24T00:21:53;99982.22;;;12.95;100.00
64933;BME280;51446;53.850;10.662;2023-04-24T00:24:18;99984.88;;;12.92;100.00
64933;BME280;51446;53.850;10.662;2023-04-24T00:26:44;99970.78;;;12.96;100.00
64933;BME280;51446;53.850;10.662;2023-04-24T00:29:09;99966.50;;;12.83;100.00
64933;BME280;51446;53.850;10.662;2023-04-24T00:31:34;99968.25;;;12.82;100.00
64933;BME280;51446;53.850;10.662;2023-04-24T00:34:00;99956.97;;;12.63;100.00
64933;BME280;51446;53.850;10.662;2023-04-24T00:36:26;99953.56;;;12.44;100.00
64933;BME280;51446;53.850;10.662;2023-04-24T00:38:52;99962.41;;;12.29;100.00
64933;BME280;51446;53.850;10.662;2023-04-24T00:41:17;99949.22;;;12.37;100.00
64933;BME280;51446;53.850;10.662;2023-04-24T00:43:42;99948.41;;;12.27;100.00
64933;BME280;51446;53.850;10.662;2023-04-24T00:46:08;99946.63;;;12.26;100.00
64933;BME280;51446;53.850;10.662;2023-04-24T00:48:34;99940.50;;;12.23;100.00
64933;BME280;51446;53.850;10.662;2023-04-24T00:50:59;99930.03;;;12.17;100.00
64933;BME280;51446;53.850;10.662;2023-04-24T00:53:24;99927.44;;;12.12;100.00
64933;BME280;51446;53.850;10.662;2023-04-24T00:55:50;99930.91;;;12.12;100.00
64933;BME280;51446;53.850;10.662;2023-04-24T00:58:16;99931.78;;;12.10;100.00
64933;BME280;51446;53.850;10.662;2023-04-24T01:00:41;99930.97;;;11.95;100.00
64933;BME280;51446;53.850;10.662;2023-04-24T01:03:06;99927.47;;;11.98;100.00
64933;BME280;51446;53.850;10.662;2023-04-24T01:05:32;99927.47;;;12.00;100.00
64933;BME280;51446;53.850;10.662;2023-04-24T01:07:58;99918.72;;;11.88;100.00
64933;BME280;51446;53.850;10.662;2023-04-24T01:10:25;99925.78;;;11.78;100.00
64933;BME280;51446;53.850;10.662;2023-04-24T01:12:51;99930.19;;;11.64;100.00
64933;BME280;51446;53.850;10.662;2023-04-24T01:15:17;99931.06;;;11.48;100.00
64933;BME280;51446;53.850;10.662;2023-04-24T01:17:42;99931.09;;;11.43;100.00
64933;BME280;51446;53.850;10.662;2023-04-24T01:20:08;99922.34;;;11.45;100.00
64933;BME280;51446;53.850;10.662;2023-04-24T01:22:34;99919.69;;;11.38;100.00
64933;BME280;51446;53.850;10.662;2023-04-24T01:25:00;99917.94;;;11.44;100.00
64933;BME280;51446;53.850;10.662;2023-04-24T01:27:25;99909.22;;;11.45;100.00
64933;BME280;51446;53.850;10.662;2023-04-24T01:29:50;99903.97;;;11.44;100.00
64933;BME280;51446;53.850;10.662;2023-04-24T01:32:17;99901.34;;;11.45;100.00
64933;BME280;51446;53.850;10.662;2023-04-24T01:34:43;99907.41;;;11.54;100.00
64933;BME280;51446;53.850;10.662;2023-04-24T01:37:09;99901.28;;;11.56;100.00
64933;BME280;51446;53.850;10.662;2023-04-24T01:39:35;99892.53;;;11.59;100.00
64933;BME280;51446;53.850;10.662;2023-04-24T01:42:00;99899.56;;;11.58;100.00
64933;BME280;51446;53.850;10.662;2023-04-24T01:44:27;99904.81;;;11.46;100.00
64933;BME280;51446;53.850;10.662;2023-04-24T01:46:53;99913.56;;;11.42;100.00
64933;BME280;51446;53.850;10.662;2023-04-24T01:49:20;99910.94;;;11.42;100.00
64933;BME280;51446;53.850;10.662;2023-04-24T01:51:45;99911.84;;;11.44;100.00
64933;BME280;51446;53.850;10.662;2023-04-24T01:54:12;99910.97;;;11.48;100.00
64933;BME280;51446;53.850;10.662;2023-04-24T01:56:40;99905.72;;;11.31;100.00
64933;BME280;51446;53.850;10.662;2023-04-24T01:59:07;99898.72;;;11.35;100.00
64933;BME280;51446;53.850;10.662;2023-04-24T02:01:38;99896.97;;;11.35;100.00
64933;BME280;51446;53.850;10.662;2023-04-24T02:04:04;99900.47;;;11.25;100.00
64933;BME280;51446;53.850;10.662;2023-04-24T02:06:30;99895.22;;;11.34;100.00
64933;BME280;51446;53.850;10.662;2023-04-24T02:08:58;99895.25;;;11.28;100.00
64933;BME280;51446;53.850;10.662;2023-04-24T02:11:23;99896.97;;;11.32;100.00
64933;BME280;51446;53.850;10.662;2023-04-24T02:13:48;99891.72;;;11.31;100.00
64933;BME280;51446;53.850;10.662;2023-04-24T02:16:14;99898.75;;;11.24;100.00
64933;BME280;51446;53.850;10.662;2023-04-24T02:18:39;99896.09;;;11.33;100.00
64933;BME280;51446;53.850;10.662;2023-04-24T02:21:04;99899.59;;;11.24;100.00
64933;BME280;51446;53.850;10.662;2023-04-24T02:23:30;99890.88;;;11.24;100.00
64933;BME280;51446;53.850;10.662;2023-04-24T02:25:55;99898.75;;;11.22;100.00
64933;BME280;51446;53.850;10.662;2023-04-24T02:28:20;99886.50;;;11.20;100.00
64933;BME280;51446;53.850;10.662;2023-04-24T02:30:46;99877.72;;;11.15;100.00
64933;BME280;51446;53.850;10.662;2023-04-24T02:33:11;99879.50;;;11.16;100.00
64933;BME280;51446;53.850;10.662;2023-04-24T02:35:37;99876.88;;;11.00;100.00
64933;BME280;51446;53.850;10.662;2023-04-24T02:38:02;99867.28;;;11.02;100.00
64933;BME280;51446;53.850;10.662;2023-04-24T02:40:28;99883.88;;;11.04;100.00
64933;BME280;51446;53.850;10.662;2023-04-24T02:42:54;99884.75;;;10.99;100.00
64933;BME280;51446;53.850;10.662;2023-04-24T02:45:19;99877.75;;;10.88;100.00
64933;BME280;51446;53.850;10.662;2023-04-24T02:47:44;99867.28;;;10.84;100.00
64933;BME280;51446;53.850;10.662;2023-04-24T02:50:09;99880.38;;;10.73;100.00
64933;BME280;51446;53.850;10.662;2023-04-24T02:52:35;99870.78;;;10.70;100.00
64933;BME280;51446;53.850;10.662;2023-04-24T02:55:00;99856.75;;;10.74;100.00
64933;BME280;51446;53.850;10.662;2023-04-24T02:57:25;99861.16;;;10.65;100.00
64933;BME280;51446;53.850;10.662;2023-04-24T02:59:51;99869.88;;;10.61;100.00
64933;BME280;51446;53.850;10.662;2023-04-24T03:02:16;99865.50;;;10.66;100.00
64933;BME280;51446;53.850;10.662;2023-04-24T03:04:41;99865.50;;;10.61;100.00
64933;BME280;51446;53.850;10.662;2023-04-24T03:07:09;99876.00;;;10.56;100.00
64933;BME280;51446;53.850;10.662;2023-04-24T03:09:34;99883.84;;;10.53;100.00
64933;BME280;51446;53.850;10.662;2023-04-24T03:12:00;99875.09;;;10.47;100.00
64933;BME280;51446;53.850;10.662;2023-04-24T03:14:25;99860.25;;;10.58;100.00
64933;BME280;51446;53.850;10.662;2023-04-24T03:16:50;99869.88;;;10.54;100.00
64933;BME280;51446;53.850;10.662;2023-04-24T03:19:16;99874.22;;;10.45;100.00
64933;BME280;51446;53.850;10.662;2023-04-24T03:21:41;99875.09;;;10.40;100.00
64933;BME280;51446;53.850;10.662;2023-04-24T03:24:07;99883.81;;;10.43;100.00
64933;BME280;51446;53.850;10.662;2023-04-24T03:26:33;99882.09;;;10.43;100.00
64933;BME280;51446;53.850;10.662;2023-04-24T03:28:58;99881.19;;;10.35;100.00
64933;BME280;51446;53.850;10.662;2023-04-24T03:31:23;99886.41;;;10.33;100.00
64933;BME280;51446;53.850;10.662;2023-04-24T03:33:49;99878.53;;;10.33;100.00
64933;BME280;51446;53.850;10.662;2023-04-24T03:36:14;99877.63;;;10.25;100.00
64933;BME280;51446;53.850;10.662;2023-04-24T03:38:40;99874.16;;;10.26;100.00
64933;BME280;51446;53.850;10.662;2023-04-24T03:41:05;99876.78;;;10.24;100.00
64933;BME280;51446;53.850;10.662;2023-04-24T03:43:30;99875.00;;;10.20;100.00
64933;BME280;51446;53.850;10.662;2023-04-24T03:45:58;99868.91;;;10.24;100.00
64933;BME280;51446;53.850;10.662;2023-04-24T03:48:23;99877.72;;;10.36;100.00
64933;BME280;51446;53.850;10.662;2023-04-24T03:50:48;99874.22;;;10.52;100.00
64933;BME280;51446;53.850;10.662;2023-04-24T03:53:13;99868.91;;;10.24;100.00
64933;BME280;51446;53.850;10.662;2023-04-24T03:55:39;99869.78;;;10.28;100.00
64933;BME280;51446;53.850;10.662;2023-04-24T03:58:04;99860.19;;;10.32;100.00
64933;BME280;51446;53.850;10.662;2023-04-24T04:00:29;99865.41;;;10.19;100.00
64933;BME280;51446;53.850;10.662;2023-04-24T04:02:56;99860.16;;;10.19;100.00
64933;BME280;51446;53.850;10.662;2023-04-24T04:05:21;99868.03;;;10.24;100.00
64933;BME280;51446;53.850;10.662;2023-04-24T04:07:47;99861.91;;;10.33;100.00
64933;BME280;51446;53.850;10.662;2023-04-24T04:10:12;99857.56;;;10.30;100.00
64933;BME280;51446;53.850;10.662;2023-04-24T04:12:37;99861.91;;;10.31;100.00
64933;BME280;51446;53.850;10.662;2023-04-24T04:15:03;99861.91;;;10.23;100.00
64933;BME280;51446;53.850;10.662;2023-04-24T04:17:28;99863.63;;;10.07;100.00
64933;BME280;51446;53.850;10.662;2023-04-24T04:19:54;99861.88;;;10.10;100.00
64933;BME280;51446;53.850;10.662;2023-04-24T04:22:20;99859.25;;;10.10;100.00
64933;BME280;51446;53.850;10.662;2023-04-24T04:24:45;99862.75;;;10.09;100.00
64933;BME280;51446;53.850;10.662;2023-04-24T04:27:11;99868.84;;;10.01;100.00
64933;BME280;51446;53.850;10.662;2023-04-24T04:29:37;99871.47;;;10.09;100.00
64933;BME280;51446;53.850;10.662;2023-04-24T04:32:03;99867.09;;;10.11;100.00
64933;BME280;51446;53.850;10.662;2023-04-24T04:34:28;99868.84;;;9.98;100.00
64933;BME280;51446;53.850;10.662;2023-04-24T04:36:54;99873.19;;;9.98;100.00
64933;BME280;51446;53.850;10.662;2023-04-24T04:39:20;99867.09;;;10.10;100.00
64933;BME280;51446;53.850;10.662;2023-04-24T04:41:45;99866.34;;;10.34;100.00
64933;BME280;51446;53.850;10.662;2023-04-24T04:44:14;99862.84;;;10.38;100.00
64933;BME280;51446;53.850;10.662;2023-04-24T04:46:40;99869.88;;;10.70;100.00
64933;BME280;51446;53.850;10.662;2023-04-24T04:49:06;99874.25;;;10.80;100.00
64933;BME280;51446;53.850;10.662;2023-04-24T04:51:33;99881.25;;;10.95;100.00
64933;BME280;51446;53.850;10.662;2023-04-24T04:53:58;99878.59;;;11.24;100.00
64933;BME280;51446;53.850;10.662;2023-04-24T04:56:24;99872.50;;;11.10;100.00
64933;BME280;51446;53.850;10.662;2023-04-24T04:58:49;99869.00;;;10.69;100.00
64933;BME280;51446;53.850;10.662;2023-04-24T05:01:15;99876.00;;;10.64;100.00
64933;BME280;51446;53.850;10.662;2023-04-24T05:03:40;99876.84;;;10.55;100.00
64933;BME280;51446;53.850;10.662;2023-04-24T05:06:06;99868.13;;;10.81;100.00
64933;BME280;51446;53.850;10.662;2023-04-24T05:08:31;99876.88;;;10.89;100.00
64933;BME280;51446;53.850;10.662;2023-04-24T05:10:56;99872.47;;;11.18;100.00
64933;BME280;51446;53.850;10.662;2023-04-24T05:13:21;99863.69;;;11.42;100.00
64933;BME280;51446;53.850;10.662;2023-04-24T05:15:47;99860.13;;;11.68;100.00
64933;BME280;51446;53.850;10.662;2023-04-24T05:18:12;99864.50;;;11.72;100.00
64933;BME280;51446;53.850;10.662;2023-04-24T05:20:37;99861.84;;;11.73;100.00
64933;BME280;51446;53.850;10.662;2023-04-24T05:23:02;99861.84;;;11.78;100.00
64933;BME280;51446;53.850;10.662;2023-04-24T05:25:28;99861.88;;;11.59;100.00
64933;BME280;51446;53.850;10.662;2023-04-24T05:27:53;99861.06;;;11.54;100.00
64933;BME280;51446;53.850;10.662;2023-04-24T05:30:19;99865.38;;;11.71;100.00
64933;BME280;51446;53.850;10.662;2023-04-24T05:32:45;99861.84;;;11.76;100.00
64933;BME280;51446;53.850;10.662;2023-04-24T05:35:11;99863.47;;;12.16;100.00
64933;BME280;51446;53.850;10.662;2023-04-24T05:37:36;99864.09;;;12.54;100.00
64933;BME280;51446;53.850;10.662;2023-04-24T05:40:01;99864.88;;;12.68;100.00
64933;BME280;51446;53.850;10.662;2023-04-24T05:42:29;99862.88;;;12.99;100.00
64933;BME280;51446;53.850;10.662;2023-04-24T05:44:54;99865.03;;;13.50;100.00
64933;BME280;51446;53.850;10.662;2023-04-24T05:47:20;99862.03;;;13.81;100.00
64933;BME280;51446;53.850;10.662;2023-04-24T05:49:47;99861.72;;;13.30;100.00
64933;BME280;51446;53.850;10.662;2023-04-24T05:52:12;99871.22;;;13.46;100.00
64933;BME280;51446;53.850;10.662;2023-04-24T05:54:37;99870.59;;;13.16;100.00
64933;BME280;51446;53.850;10.662;2023-04-24T05:57:03;99871.72;;;12.88;100.00
64933;BME280;51446;53.850;10.662;2023-04-24T05:59:32;99872.00;;;12.52;100.00
64933;BME280;51446;53.850;10.662;2023-04-24T06:01:57;99874.59;;;12.55;100.00
64933;BME280;51446;53.850;10.662;2023-04-24T06:04:23;99870.91;;;12.82;100.00
64933;BME280;51446;53.850;10.662;2023-04-24T06:06:48;99868.00;;;13.12;100.00
64933;BME280;51446;53.850;10.662;2023-04-24T06:09:16;99865.72;;;13.66;100.00
64933;BME280;51446;53.850;10.662;2023-04-24T06:11:42;99866.94;;;14.73;100.00
64933;BME280;51446;53.850;10.662;2023-04-24T06:14:07;99869.59;;;15.26;100.00
64933;BME280;51446;53.850;10.662;2023-04-24T06:16:32;99876.94;;;15.08;100.00
64933;BME280;51446;53.850;10.662;2023-04-24T06:18:58;99875.00;;;14.65;100.00
64933;BME280;51446;53.850;10.662;2023-04-24T06:21:23;99878.34;;;15.75;97.06
64933;BME280;51446;53.850;10.662;2023-04-24T06:23:48;99873.38;;;16.45;87.40
64933;BME280;51446;53.850;10.662;2023-04-24T06:26:14;99870.69;;;17.21;80.73
64933;BME280;51446;53.850;10.662;2023-04-24T06:28:40;99873.00;;;16.22;83.91
64933;BME280;51446;53.850;10.662;2023-04-24T06:31:05;99875.25;;;16.39;83.26
64933;BME280;51446;53.850;10.662;2023-04-24T06:33:30;99869.41;;;17.01;77.03
64933;BME280;51446;53.850;10.662;2023-04-24T06:35:56;99867.53;;;17.39;77.01
64933;BME280;51446;53.850;10.662;2023-04-24T06:38:21;99872.09;;;17.34;72.52
64933;BME280;51446;53.850;10.662;2023-04-24T06:40:46;99868.31;;;18.07;68.93
64933;BME280;51446;53.850;10.662;2023-04-24T06:43:11;99866.75;;;18.58;64.10
64933;BME280;51446;53.850;10.662;2023-04-24T06:45:38;99877.09;;;18.09;65.75
64933;BME280;51446;53.850;10.662;2023-04-24T06:48:04;99874.72;;;18.58;60.95
64933;BME280;51446;53.850;10.662;2023-04-24T06:50:29;99880.16;;;19.10;62.49
64933;BME280;51446;53.850;10.662;2023-04-24T06:52:54;99877.94;;;19.23;58.89
64933;BME280;51446;53.850;10.662;2023-04-24T06:55:19;99875.97;;;18.46;58.74
64933;BME280;51446;53.850;10.662;2023-04-24T06:57:45;99864.66;;;18.11;62.15
64933;BME280;51446;53.850;10.662;2023-04-24T07:00:10;99863.56;;;19.03;58.39
64933;BME280;51446;53.850;10.662;2023-04-24T07:02:36;99867.78;;;19.85;54.85
64933;BME280;51446;53.850;10.662;2023-04-24T07:05:02;99855.78;;;19.49;56.55
64933;BME280;51446;53.850;10.662;2023-04-24T07:07:28;99854.13;;;20.18;53.04
64933;BME280;51446;53.850;10.662;2023-04-24T07:09:53;99858.84;;;19.62;51.77
64933;BME280;51446;53.850;10.662;2023-04-24T07:12:19;99865.75;;;20.39;51.61
64933;BME280;51446;53.850;10.662;2023-04-24T07:14:46;99862.28;;;18.88;54.90
64933;BME280;51446;53.850;10.662;2023-04-24T07:17:12;99863.88;;;19.45;54.79
64933;BME280;51446;53.850;10.662;2023-04-24T07:19:38;99862.03;;;19.72;53.55
64933;BME280;51446;53.850;10.662;2023-04-24T07:22:03;99855.56;;;20.26;52.32
64933;BME280;51446;53.850;10.662;2023-04-24T07:24:28;99866.00;;;19.10;54.22
64933;BME280;51446;53.850;10.662;2023-04-24T07:26:54;99855.69;;;20.23;52.03
64933;BME280;51446;53.850;10.662;2023-04-24T07:29:20;99854.63;;;19.56;52.16
64933;BME280;51446;53.850;10.662;2023-04-24T07:31:46;99859.66;;;19.89;51.09
64933;BME280;51446;53.850;10.662;2023-04-24T07:34:11;99859.34;;;19.48;52.22
64933;BME280;51446;53.850;10.662;2023-04-24T07:36:37;99858.09;;;20.53;49.19
64933;BME280;51446;53.850;10.662;2023-04-24T07:39:04;99868.00;;;21.57;46.65
64933;BME280;51446;53.850;10.662;2023-04-24T07:41:29;99861.16;;;19.71;48.39
64933;BME280;51446;53.850;10.662;2023-04-24T07:43:54;99869.06;;;18.41;53.99
64933;BME280;51446;53.850;10.662;2023-04-24T07:46:20;99873.78;;;18.32;54.65
64933;BME280;51446;53.850;10.662;2023-04-24T07:48:45;99875.16;;;19.01;54.67
64933;BME280;51446;53.850;10.662;2023-04-24T07:51:13;99869.06;;;17.48;57.05
64933;BME280;51446;53.850;10.662;2023-04-24T07:53:39;99873.47;;;18.42;55.62
64933;BME280;51446;53.850;10.662;2023-04-24T07:56:05;99878.47;;;19.33;52.03
64933;BME280;51446;53.850;10.662;2023-04-24T07:58:31;99876.59;;;19.62;54.40
64933;BME280;51446;53.850;10.662;2023-04-24T08:00:56;99874.13;;;20.06;53.25
64933;BME280;51446;53.850;10.662;2023-04-24T08:03:21;99882.22;;;18.45;56.49
64933;BME280;51446;53.850;10.662;2023-04-24T08:05:47;99894.81;;;18.09;58.36
64933;BME280;51446;53.850;10.662;2023-04-24T08:08:12;99892.22;;;17.74;59.45
64933;BME280;51446;53.850;10.662;2023-04-24T08:10:38;99878.56;;;17.57;59.10
64933;BME280;51446;53.850;10.662;2023-04-24T08:13:03;99885.28;;;17.01;63.43
64933;BME280;51446;53.850;10.662;2023-04-24T08:15:29;99880.66;;;17.77;60.46
64933;BME280;51446;53.850;10.662;2023-04-24T08:17:54;99889.59;;;17.05;61.83
64933;BME280;51446;53.850;10.662;2023-04-24T08:20:19;99878.97;;;17.41;60.12
64933;BME280;51446;53.850;10.662;2023-04-24T08:22:45;99878.53;;;18.21;58.05
64933;BME280;51446;53.850;10.662;2023-04-24T08:25:12;99877.22;;;18.91;55.04
64933;BME280;51446;53.850;10.662;2023-04-24T08:27:38;99861.25;;;20.85;50.08
64933;BME280;51446;53.850;10.662;2023-04-24T08:30:04;99883.19;;;20.00;50.42
64933;BME280;51446;53.850;10.662;2023-04-24T08:32:30;99882.44;;;18.37;54.36
64933;BME280;51446;53.850;10.662;2023-04-24T08:34:56;99888.28;;;17.89;56.19
64933;BME280;51446;53.850;10.662;2023-04-24T08:37:22;99888.56;;;17.45;56.94
64933;BME280;51446;53.850;10.662;2023-04-24T08:39:47;99889.44;;;18.40;55.13
64933;BME280;51446;53.850;10.662;2023-04-24T08:42:14;99881.00;;;20.57;50.64
64933;BME280;51446;53.850;10.662;2023-04-24T08:44:39;99884.81;;;19.03;50.87
64933;BME280;51446;53.850;10.662;2023-04-24T08:47:06;99895.50;;;19.02;53.03
64933;BME280;51446;53.850;10.662;2023-04-24T08:49:33;99892.94;;;18.12;53.77
64933;BME280;51446;53.850;10.662;2023-04-24T08:51:59;99903.00;;;18.59;53.08
64933;BME280;51446;53.850;10.662;2023-04-24T08:54:25;99900.06;;;19.99;51.19
64933;BME280;51446;53.850;10.662;2023-04-24T08:56:51;99894.94;;;21.51;47.38
64933;BME280;51446;53.850;10.662;2023-04-24T08:59:18;99890.09;;;23.48;43.93
64933;BME280;51446;53.850;10.662;2023-04-24T09:01:45;99890.59;;;21.69;42.93
64933;BME280;51446;53.850;10.662;2023-04-24T09:04:12;99893.66;;;20.96;45.23
64933;BME280;51446;53.850;10.662;2023-04-24T09:06:39;99888.34;;;20.96;44.40
64933;BME280;51446;53.850;10.662;2023-04-24T09:09:05;99900.03;;;20.01;46.43
64933;BME280;51446;53.850;10.662;2023-04-24T09:11:31;99902.00;;;19.18;48.64
64933;BME280;51446;53.850;10.662;2023-04-24T09:13:58;99891.84;;;18.76;50.56
64933;BME280;51446;53.850;10.662;2023-04-24T09:16:25;99897.28;;;17.83;53.36
64933;BME280;51446;53.850;10.662;2023-04-24T09:18:51;99896.81;;;18.30;53.13
64933;BME280;51446;53.850;10.662;2023-04-24T09:21:16;99897.03;;;20.10;48.74
64933;BME280;51446;53.850;10.662;2023-04-24T09:23:41;99891.88;;;20.75;45.92
64933;BME280;51446;53.850;10.662;2023-04-24T09:26:08;99893.25;;;20.39;44.39
64933;BME280;51446;53.850;10.662;2023-04-24T09:28:39;99904.53;;;18.38;48.41
64933;BME280;51446;53.850;10.662;2023-04-24T09:31:05;99905.22;;;18.15;51.18
64933;BME280;51446;53.850;10.662;2023-04-24T09:33:31;99912.53;;;16.29;56.45
64933;BME280;51446;53.850;10.662;2023-04-24T09:35:57;99907.38;;;16.62;57.24
64933;BME280;51446;53.850;10.662;2023-04-24T09:38:39;99907.44;;;16.59;58.98
64933;BME280;51446;53.850;10.662;2023-04-24T09:41:06;99913.81;;;16.51;59.64
64933;BME280;51446;53.850;10.662;2023-04-24T09:43:33;99906.47;;;18.03;54.52
64933;BME280;51446;53.850;10.662;2023-04-24T09:46:00;99910.25;;;19.63;50.30
64933;BME280;51446;53.850;10.662;2023-04-24T09:48:30;99910.06;;;18.60;52.32
64933;BME280;51446;53.850;10.662;2023-04-24T09:50:56;99912.34;;;18.44;50.97
64933;BME280;51446;53.850;10.662;2023-04-24T09:53:25;99899.25;;;16.70;55.35
64933;BME280;51446;53.850;10.662;2023-04-24T09:55:51;99893.59;;;17.23;55.41
64933;BME280;51446;53.850;10.662;2023-04-24T09:58:18;99907.88;;;16.41;58.76
64933;BME280;51446;53.850;10.662;2023-04-24T10:00:45;99913.19;;;16.78;58.97
64933;BME280;51446;53.850;10.662;2023-04-24T10:03:11;99905.81;;;17.62;55.68
64933;BME280;51446;53.850;10.662;2023-04-24T10:05:37;99918.22;;;16.91;56.79
64933;BME280;51446;53.850;10.662;2023-04-24T10:08:10;99918.28;;;16.88;58.22
64933;BME280;51446;53.850;10.662;2023-04-24T10:10:43;99911.69;;;16.68;59.33
64933;BME280;51446;53.850;10.662;2023-04-24T10:13:12;99921.44;;;15.80;65.97
64933;BME280;51446;53.850;10.662;2023-04-24T10:15:39;99923.56;;;16.89;63.33
64933;BME280;51446;53.850;10.662;2023-04-24T10:18:05;99913.47;;;17.40;60.14
64933;BME280;51446;53.850;10.662;2023-04-24T10:20:32;99920.09;;;19.07;54.40
64933;BME280;51446;53.850;10.662;2023-04-24T10:22:59;99924.94;;;19.73;49.00
64933;BME280;51446;53.850;10.662;2023-04-24T10:25:27;99921.19;;;19.80;47.72
64933;BME280;51446;53.850;10.662;2023-04-24T10:27:53;99931.03;;;18.10;51.56
64933;BME280;51446;53.850;10.662;2023-04-24T10:30:22;99926.34;;;18.19;52.58
64933;BME280;51446;53.850;10.662;2023-04-24T10:32:47;99931.31;;;17.66;55.80
64933;BME280;51446;53.850;10.662;2023-04-24T10:35:14;99934.72;;;16.63;58.23
64933;BME280;51446;53.850;10.662;2023-04-24T10:37:43;99933.53;;;16.76;61.39
64933;BME280;51446;53.850;10.662;2023-04-24T10:40:10;99938.59;;;16.87;61.19
64933;BME280;51446;53.850;10.662;2023-04-24T10:42:39;99933.88;;;17.36;61.55
64933;BME280;51446;53.850;10.662;2023-04-24T10:45:06;99928.13;;;16.81;62.96
64933;BME280;51446;53.850;10.662;2023-04-24T10:47:41;99943.28;;;16.74;62.15
64933;BME280;51446;53.850;10.662;2023-04-24T10:50:09;99929.75;;;17.26;59.70
64933;BME280;51446;53.850;10.662;2023-04-24T10:52:45;99941.41;;;17.53;54.11
64933;BME280;51446;53.850;10.662;2023-04-24T10:55:13;99941.22;;;17.25;53.79
64933;BME280;51446;53.850;10.662;2023-04-24T10:57:39;99935.84;;;16.92;55.68
64933;BME280;51446;53.850;10.662;2023-04-24T11:00:15;99935.75;;;16.96;51.79
64933;BME280;51446;53.850;10.662;2023-04-24T11:02:41;99936.31;;;18.11;51.95
64933;BME280;51446;53.850;10.662;2023-04-24T11:05:14;99930.31;;;17.70;52.33
64933;BME280;51446;53.850;10.662;2023-04-24T11:10:45;99942.56;;;17.41;54.20
64933;BME280;51446;53.850;10.662;2023-04-24T11:13:14;99941.97;;;18.59;51.27
64933;BME280;51446;53.850;10.662;2023-04-24T11:15:41;99936.34;;;20.27;46.27
64933;BME280;51446;53.850;10.662;2023-04-24T11:18:13;99934.16;;;20.60;45.74
64933;BME280;51446;53.850;10.662;2023-04-24T11:20:42;99939.16;;;19.47;46.48
64933;BME280;51446;53.850;10.662;2023-04-24T11:23:07;99930.13;;;18.41;48.69
64933;BME280;51446;53.850;10.662;2023-04-24T11:25:33;99930.19;;;17.76;52.42
64933;BME280;51446;53.850;10.662;2023-04-24T11:28:04;99931.81;;;17.80;52.18
64933;BME280;51446;53.850;10.662;2023-04-24T11:30:31;99923.50;;;19.12;50.59
64933;BME280;51446;53.850;10.662;2023-04-24T11:33:04;99920.34;;;20.74;46.77
64933;BME280;51446;53.850;10.662;2023-04-24T11:35:35;99920.56;;;20.44;45.74
64933;BME280;51446;53.850;10.662;2023-04-24T11:38:02;99929.16;;;19.55;47.47
64933;BME280;51446;53.850;10.662;2023-04-24T11:40:28;99926.06;;;18.29;49.36
64933;BME280;51446;53.850;10.662;2023-04-24T11:42:53;99927.31;;;18.47;51.09
64933;BME280;51446;53.850;10.662;2023-04-24T11:45:30;99928.56;;;18.03;52.36
64933;BME280;51446;53.850;10.662;2023-04-24T11:47:55;99919.69;;;17.72;53.10
64933;BME280;51446;53.850;10.662;2023-04-24T11:50:23;99918.63;;;18.70;53.00
64933;BME280;51446;53.850;10.662;2023-04-24T11:52:49;99939.91;;;17.76;52.52
64933;BME280;51446;53.850;10.662;2023-04-24T11:57:43;99930.03;;;18.44;53.51
64933;BME280;51446;53.850;10.662;2023-04-24T12:00:21;99944.25;;;18.43;51.76
64933;BME280;51446;53.850;10.662;2023-04-24T12:02:48;99942.69;;;18.94;51.22
64933;BME280;51446;53.850;10.662;2023-04-24T12:07:45;99937.53;;;17.99;52.12
64933;BME280;51446;53.850;10.662;2023-04-24T12:10:11;99938.78;;;17.84;53.59
64933;BME280;51446;53.850;10.662;2023-04-24T12:12:36;99935.69;;;18.33;52.62
64933;BME280;51446;53.850;10.662;2023-04-24T12:15:07;99944.19;;;18.72;50.70
64933;BME280;51446;53.850;10.662;2023-04-24T12:17:33;99928.09;;;19.34;49.80
64933;BME280;51446;53.850;10.662;2023-04-24T12:20:07;99932.88;;;19.49;51.96
64933;BME280;51446;53.850;10.662;2023-04-24T12:25:12;99929.19;;;18.71;50.97
64933;BME280;51446;53.850;10.662;2023-04-24T12:27:38;99936.53;;;18.03;53.09
64933;BME280;51446;53.850;10.662;2023-04-24T12:30:05;99928.91;;;18.52;52.54
64933;BME280;51446;53.850;10.662;2023-04-24T12:32:31;99930.09;;;17.79;54.78
64933;BME280;51446;53.850;10.662;2023-04-24T12:34:57;99930.13;;;17.45;55.61
64933;BME280;51446;53.850;10.662;2023-04-24T12:37:24;99926.97;;;16.55;56.65
64933;BME280;51446;53.850;10.662;2023-04-24T12:40:10;99934.69;;;16.64;59.43
64933;BME280;51446;53.850;10.662;2023-04-24T12:42:46;99933.13;;;16.15;58.49
64933;BME280;51446;53.850;10.662;2023-04-24T12:45:12;99930.28;;;16.23;60.37
64933;BME280;51446;53.850;10.662;2023-04-24T12:47:39;99933.19;;;16.12;59.36
64933;BME280;51446;53.850;10.662;2023-04-24T12:50:06;99930.81;;;15.98;59.01
64933;BME280;51446;53.850;10.662;2023-04-24T12:52:32;99932.66;;;15.93;60.68